createdAt,value
2022-09-13T00:02:28.889Z,100367.50
2022-09-13T00:04:56.831Z,100370.03
2022-09-13T00:07:27.414Z,100364.75
2022-09-13T00:09:57.899Z,100363.75
2022-09-13T00:12:31.430Z,100363.75
2022-09-13T00:15:02.976Z,100360.25
2022-09-13T00:17:34.942Z,100359.25
2022-09-13T00:20:05.490Z,100361.13
2022-09-13T00:22:33.501Z,100359.66
2022-09-13T00:25:05.481Z,100360.47
2022-09-13T00:27:33.840Z,100353.81
2022-09-13T00:30:01.679Z,100354.00
2022-09-13T00:32:41.433Z,100359.16
2022-09-13T00:35:10.955Z,100359.25
2022-09-13T00:37:39.245Z,100348.25
2022-09-13T00:40:08.788Z,100337.00
2022-09-13T00:42:37.388Z,100346.19
2022-09-13T00:45:17.033Z,100334.81
2022-09-13T00:47:56.506Z,100333.84
2022-09-13T00:50:33.806Z,100324.38
2022-09-13T00:53:09.730Z,100328.47
2022-09-13T00:55:41.796Z,100323.31
2022-09-13T00:58:14.312Z,100312.91
2022-09-13T01:00:42.321Z,100327.28
2022-09-13T01:03:13.431Z,100317.34
2022-09-13T01:05:47.542Z,100312.03
2022-09-13T01:08:25.057Z,100311.19
2022-09-13T01:10:54.971Z,100309.41
2022-09-13T01:13:27.524Z,100299.72
2022-09-13T01:15:55.532Z,100311.34
2022-09-13T01:18:23.565Z,100298.06
2022-09-13T01:21:45.945Z,100288.38
2022-09-13T01:24:42.173Z,100280.34
2022-09-13T01:27:24.856Z,100268.03
2022-09-13T01:30:34.645Z,100267.53
2022-09-13T01:33:32.996Z,100278.09
2022-09-13T01:36:32.952Z,100269.88
2022-09-13T01:39:06.706Z,100259.03
2022-09-13T01:42:01.751Z,100251.50
2022-09-13T01:44:50.758Z,100246.31
2022-09-13T01:47:30.568Z,100247.88
2022-09-13T01:50:13.115Z,100245.34
2022-09-13T01:52:50.321Z,100240.75
2022-09-13T01:55:37.518Z,100243.56
2022-09-13T01:58:25.677Z,100239.28
2022-09-13T02:01:01.587Z,100242.38
2022-09-13T02:03:40.282Z,100238.19
2022-09-13T02:06:22.354Z,100240.97
2022-09-13T02:08:54.853Z,100249.69
2022-09-13T02:11:25.878Z,100248.91
2022-09-13T02:13:58.741Z,100249.88
2022-09-13T02:16:39.048Z,100231.88
2022-09-13T02:19:13.613Z,100245.06
2022-09-13T02:21:47.884Z,100240.94
2022-09-13T02:24:20.955Z,100244.38
2022-09-13T02:26:57.251Z,100258.06
2022-09-13T02:29:28.843Z,100246.16
2022-09-13T02:32:00.432Z,100253.94
2022-09-13T02:34:36.020Z,100253.28
2022-09-13T02:37:06.895Z,100257.56
2022-09-13T02:39:37.171Z,100273.81
2022-09-13T02:42:12.429Z,100273.03
2022-09-13T02:44:46.870Z,100268.84
2022-09-13T02:47:33.854Z,100277.81
2022-09-13T02:50:11.769Z,100290.16
2022-09-13T02:53:02.568Z,100274.75
2022-09-13T02:55:39.541Z,100276.03
2022-09-13T02:58:13.384Z,100276.13
2022-09-13T03:00:45.206Z,100272.91
2022-09-13T03:03:16.597Z,100277.47
2022-09-13T03:05:45.069Z,100288.94
2022-09-13T03:08:17.820Z,100281.56
2022-09-13T03:11:10.515Z,100277.44
2022-09-13T03:13:52.003Z,100245.38
2022-09-13T03:16:39.382Z,100260.94
2022-09-13T03:19:35.188Z,100259.84
2022-09-13T03:22:45.367Z,100259.09
2022-09-13T03:25:27.999Z,100252.13
2022-09-13T03:28:07.772Z,100251.16
2022-09-13T03:30:43.459Z,100247.63
2022-09-13T03:33:29.454Z,100247.28
2022-09-13T03:36:07.266Z,100248.34
2022-09-13T03:38:41.189Z,100243.44
2022-09-13T03:41:15.604Z,100242.75
2022-09-13T03:43:58.795Z,100245.38
2022-09-13T03:46:37.946Z,100243.81
2022-09-13T03:49:09.150Z,100242.25
2022-09-13T03:51:38.066Z,100231.28
2022-09-13T03:54:11.081Z,100231.28
2022-09-13T03:56:40.870Z,100229.72
2022-09-13T03:59:08.832Z,100233.22
2022-09-13T04:01:37.963Z,100229.03
2022-09-13T04:04:06.077Z,100228.13
2022-09-13T04:06:36.618Z,100218.84
2022-09-13T04:09:04.506Z,100225.94
2022-09-13T04:11:33.424Z,100223.09
2022-09-13T04:14:05.634Z,100224.66
2022-09-13T04:16:39.411Z,100220.47
2022-09-13T04:19:08.127Z,100231.53
2022-09-13T04:21:44.186Z,100224.88
2022-09-13T04:24:15.102Z,100208.81
2022-09-13T04:26:51.141Z,100216.59
2022-09-13T04:29:20.634Z,100215.63
2022-09-13T04:31:52.906Z,100222.50
2022-09-13T04:34:22.296Z,100230.13
2022-09-13T04:36:50.956Z,100230.03
2022-09-13T04:39:23.207Z,100218.91
2022-09-13T04:41:51.985Z,100213.72
2022-09-13T04:44:24.418Z,100209.22
2022-09-13T04:46:52.957Z,100198.69
2022-09-13T04:49:21.884Z,100216.06
2022-09-13T04:51:53.107Z,100218.22
2022-09-13T04:54:30.523Z,100209.25
2022-09-13T04:57:23.852Z,100224.50
2022-09-13T04:59:53.030Z,100217.63
2022-09-13T05:02:21.131Z,100218.59
2022-09-13T05:04:52.033Z,100230.53
2022-09-13T05:07:22.814Z,100232.38
2022-09-13T05:09:51.007Z,100222.72
2022-09-13T05:12:18.955Z,100240.22
2022-09-13T05:14:46.736Z,100231.09
2022-09-13T05:17:16.234Z,100233.06
2022-09-13T05:19:43.947Z,100237.34
2022-09-13T05:22:11.772Z,100234.78
2022-09-13T05:24:39.955Z,100239.97
2022-09-13T05:27:09.355Z,100244.19
2022-09-13T05:29:39.354Z,100237.34
2022-09-13T05:32:07.196Z,100238.31
2022-09-13T05:34:36.378Z,100243.31
2022-09-13T05:37:04.252Z,100240.84
2022-09-13T05:39:43.993Z,100245.25
2022-09-13T05:42:20.150Z,100241.91
2022-09-13T05:44:50.062Z,100245.19
2022-09-13T05:47:19.671Z,100242.72
2022-09-13T05:50:08.609Z,100249.84
2022-09-13T05:52:39.848Z,100240.63
2022-09-13T05:55:08.203Z,100234.66
2022-09-13T05:57:37.507Z,100233.69
2022-09-13T06:00:06.455Z,100236.31
2022-09-13T06:02:40.370Z,100223.78
2022-09-13T06:05:10.585Z,100230.06
2022-09-13T06:07:48.866Z,100236.22
2022-09-13T06:10:17.749Z,100229.63
2022-09-13T06:12:45.563Z,100237.56
2022-09-13T06:15:13.707Z,100230.13
2022-09-13T06:17:41.658Z,100222.38
2022-09-13T06:20:16.006Z,100227.66
2022-09-13T06:22:43.796Z,100228.72
2022-09-13T06:25:11.528Z,100222.13
2022-09-13T06:27:39.804Z,100212.91
2022-09-13T06:30:09.179Z,100209.31
2022-09-13T06:32:37.347Z,100216.44
2022-09-13T06:35:09.522Z,100199.13
2022-09-13T06:37:38.806Z,100211.00
2022-09-13T06:40:13.717Z,100205.13
2022-09-13T06:42:41.708Z,100214.88
2022-09-13T06:45:10.639Z,100221.81
2022-09-13T06:47:40.758Z,100221.72
2022-09-13T06:50:11.528Z,100220.91
2022-09-13T06:52:41.665Z,100224.19
2022-09-13T06:55:12.723Z,100226.00
2022-09-13T06:57:41.427Z,100211.38
2022-09-13T07:00:13.426Z,100215.41
2022-09-13T07:02:41.311Z,100221.34
2022-09-13T07:05:10.867Z,100221.34
2022-09-13T07:07:38.680Z,100219.44
2022-09-13T07:10:21.103Z,100224.72
2022-09-13T07:12:49.306Z,100229.97
2022-09-13T07:15:19.375Z,100226.63
2022-09-13T07:17:47.276Z,100224.53
2022-09-13T07:20:15.896Z,100234.19
2022-09-13T07:22:44.465Z,100238.66
2022-09-13T07:25:13.735Z,100229.63
2022-09-13T07:27:41.990Z,100240.03
2022-09-13T07:30:13.295Z,100232.44
2022-09-13T07:32:42.490Z,100234.19
2022-09-13T07:35:14.732Z,100240.34
2022-09-13T07:37:42.727Z,100236.13
2022-09-13T07:40:19.521Z,100242.28
2022-09-13T07:42:54.992Z,100233.16
2022-09-13T07:45:23.899Z,100238.91
2022-09-13T07:47:53.633Z,100241.81
2022-09-13T07:50:21.477Z,100249.59
2022-09-13T07:52:49.391Z,100259.03
2022-09-13T07:55:17.259Z,100256.47
2022-09-13T07:57:49.270Z,100261.94
2022-09-13T08:00:29.938Z,100250.63
2022-09-13T08:02:57.777Z,100251.47
2022-09-13T08:05:25.775Z,100245.44
2022-09-13T08:07:53.648Z,100251.03
2022-09-13T08:10:21.591Z,100257.56
2022-09-13T08:13:01.908Z,100259.78
2022-09-13T08:15:29.978Z,100268.06
2022-09-13T08:18:00.420Z,100273.31
2022-09-13T08:20:38.037Z,100271.72
2022-09-13T08:23:07.061Z,100272.69
2022-09-13T08:25:35.588Z,100271.28
2022-09-13T08:28:18.948Z,100273.06
2022-09-13T08:30:49.341Z,100271.81
2022-09-13T08:33:23.155Z,100269.88
2022-09-13T08:35:52.510Z,100275.63
2022-09-13T08:38:23.009Z,100283.53
2022-09-13T08:40:54.659Z,100276.91
2022-09-13T08:43:49.232Z,100278.22
2022-09-13T08:46:22.292Z,100270.66
2022-09-13T08:48:57.370Z,100265.03
2022-09-13T08:51:33.228Z,100266.03
2022-09-13T08:54:03.001Z,100267.66
2022-09-13T08:56:42.852Z,100271.47
2022-09-13T08:59:33.178Z,100272.19
2022-09-13T09:02:23.283Z,100264.22
2022-09-13T09:04:59.372Z,100268.19
2022-09-13T09:07:38.208Z,100265.94
2022-09-13T09:10:15.150Z,100256.56
2022-09-13T09:12:47.209Z,100266.63
2022-09-13T09:15:21.471Z,100274.75
2022-09-13T09:18:05.399Z,100269.34
2022-09-13T09:20:39.131Z,100274.06
2022-09-13T09:23:16.712Z,100276.84
2022-09-13T09:25:49.105Z,100278.16
2022-09-13T09:28:18.587Z,100268.78
2022-09-13T09:31:07.356Z,100267.19
2022-09-13T09:33:52.581Z,100260.47
2022-09-13T09:36:34.860Z,100261.34
2022-09-13T09:39:05.453Z,100256.78
2022-09-13T09:41:37.018Z,100263.81
2022-09-13T09:44:18.195Z,100271.41
2022-09-13T09:46:49.973Z,100262.75
2022-09-13T09:49:44.840Z,100267.06
2022-09-13T09:52:21.159Z,100257.66
2022-09-13T09:54:56.737Z,100261.78
2022-09-13T09:57:54.028Z,100263.00
2022-09-13T10:00:24.506Z,100252.13
2022-09-13T10:02:58.207Z,100253.84
2022-09-13T10:05:27.809Z,100248.72
2022-09-13T10:08:02.833Z,100250.16
2022-09-13T10:11:07.962Z,100251.56
2022-09-13T10:13:38.848Z,100253.53
2022-09-13T10:16:23.992Z,100253.44
2022-09-13T10:18:56.214Z,100259.25
2022-09-13T10:21:26.287Z,100252.25
2022-09-13T10:24:22.415Z,100252.81
2022-09-13T10:26:50.281Z,100254.03
2022-09-13T10:29:21.270Z,100253.47
2022-09-13T10:31:55.330Z,100261.09
2022-09-13T10:34:28.570Z,100266.22
2022-09-13T10:37:03.991Z,100254.00
2022-09-13T10:39:36.408Z,100252.88
2022-09-13T10:42:10.787Z,100258.41
2022-09-13T10:44:42.804Z,100256.47
2022-09-13T10:47:15.782Z,100240.91
2022-09-13T10:49:49.716Z,100253.41
2022-09-13T10:52:28.617Z,100249.22
2022-09-13T10:54:56.996Z,100253.81
2022-09-13T10:57:35.415Z,100257.97
2022-09-13T11:00:06.548Z,100258.78
2022-09-13T11:03:03.270Z,100264.13
2022-09-13T11:05:38.823Z,100263.22
2022-09-13T11:08:43.450Z,100254.03
2022-09-13T11:11:20.469Z,100267.44
2022-09-13T11:14:01.728Z,100256.16
2022-09-13T11:17:08.842Z,100256.47
2022-09-13T11:20:00.851Z,100260.44
2022-09-13T11:23:07.156Z,100250.38
2022-09-13T11:25:55.968Z,100251.84
2022-09-13T11:28:39.408Z,100249.78
2022-09-13T11:31:38.300Z,100244.53
2022-09-13T11:34:33.239Z,100246.28
2022-09-13T11:37:30.499Z,100242.63
2022-09-13T11:40:16.609Z,100243.28
2022-09-13T11:42:52.295Z,100244.56
2022-09-13T11:45:24.059Z,100245.41
2022-09-13T11:48:10.646Z,100235.75
2022-09-13T11:50:57.219Z,100243.66
2022-09-13T11:53:52.722Z,100245.25
2022-09-13T11:56:26.108Z,100247.00
2022-09-13T11:59:15.019Z,100248.41
2022-09-13T12:01:47.443Z,100250.50
2022-09-13T12:04:27.751Z,100267.13
2022-09-13T12:07:02.278Z,100262.56
2022-09-13T12:09:36.268Z,100255.03
2022-09-13T12:12:07.007Z,100255.44
2022-09-13T12:14:43.761Z,100245.22
2022-09-13T12:17:29.000Z,100245.41
2022-09-13T12:20:00.249Z,100248.91
2022-09-13T12:22:37.323Z,100226.75
2022-09-13T12:25:13.793Z,100236.84
2022-09-13T12:27:57.321Z,100242.47
2022-09-13T12:30:29.498Z,100251.84
2022-09-13T12:32:59.696Z,100257.22
2022-09-13T12:35:35.568Z,100254.81
2022-09-13T12:38:32.176Z,100225.72
2022-09-13T12:41:18.406Z,100253.28
2022-09-13T12:44:22.261Z,100247.38
2022-09-13T12:47:13.368Z,100245.94
2022-09-13T12:50:15.109Z,100217.22
2022-09-13T12:52:59.245Z,100243.22
2022-09-13T12:56:02.385Z,100244.84
2022-09-13T12:58:57.148Z,100235.63
2022-09-13T13:01:30.840Z,100248.03
2022-09-13T13:04:04.101Z,100242.25
2022-09-13T13:06:37.133Z,100243.31
2022-09-13T13:09:29.092Z,100237.22
2022-09-13T13:12:01.226Z,100230.97
2022-09-13T13:14:45.412Z,100229.16
2022-09-13T13:17:37.764Z,100231.59
2022-09-13T13:20:47.002Z,100224.00
2022-09-13T13:23:25.655Z,100214.41
2022-09-13T13:26:34.104Z,100219.06
2022-09-13T13:29:21.146Z,100221.28
2022-09-13T13:32:16.531Z,100215.44
2022-09-13T13:34:48.927Z,100218.78
2022-09-13T13:37:38.038Z,100218.31
2022-09-13T13:40:26.975Z,100214.53
2022-09-13T13:43:33.823Z,100211.50
2022-09-13T13:46:28.804Z,100210.75
2022-09-13T13:48:57.436Z,100212.44
2022-09-13T13:51:30.184Z,100213.00
2022-09-13T13:54:06.617Z,100193.94
2022-09-13T13:56:46.965Z,100210.69
2022-09-13T13:59:20.825Z,100205.56
2022-09-13T14:01:51.423Z,100192.31
2022-09-13T14:04:58.298Z,100196.03
2022-09-13T14:08:23.961Z,100191.03
2022-09-13T14:11:12.000Z,100188.84
2022-09-13T14:13:53.474Z,100197.19
2022-09-13T14:16:36.867Z,100189.75
2022-09-13T14:19:19.896Z,100190.84
2022-09-13T14:22:13.692Z,100193.59
2022-09-13T14:24:46.369Z,100193.13
2022-09-13T14:27:22.567Z,100198.03
2022-09-13T14:29:52.254Z,100194.50
2022-09-13T14:32:23.521Z,100194.69
2022-09-13T14:34:56.795Z,100191.47
2022-09-13T14:37:33.260Z,100185.84
2022-09-13T14:40:04.388Z,100183.34
2022-09-13T14:42:45.073Z,100168.06
2022-09-13T14:45:14.909Z,100172.69
2022-09-13T14:47:50.768Z,100164.69
2022-09-13T14:50:21.976Z,100157.44
2022-09-13T14:52:54.640Z,100159.13
2022-09-13T14:55:28.139Z,100157.56
2022-09-13T14:58:04.308Z,100171.44
2022-09-13T15:00:35.129Z,100164.31
2022-09-13T15:03:13.740Z,100174.97
2022-09-13T15:05:42.042Z,100165.66
2022-09-13T15:08:53.686Z,100170.94
2022-09-13T15:11:31.072Z,100168.31
2022-09-13T15:14:23.502Z,100166.69
2022-09-13T15:16:54.535Z,100164.81
2022-09-13T15:19:40.201Z,100171.22
2022-09-13T15:22:34.761Z,100165.69
2022-09-13T15:25:06.005Z,100166.56
2022-09-13T15:27:45.469Z,100174.44
2022-09-13T15:30:22.415Z,100173.66
2022-09-13T15:32:51.419Z,100175.53
2022-09-13T15:35:24.566Z,100174.53
2022-09-13T15:38:01.010Z,100181.34
2022-09-13T15:40:42.003Z,100178.66
2022-09-13T15:43:09.917Z,100163.47
2022-09-13T15:45:39.149Z,100175.53
2022-09-13T15:48:16.414Z,100173.19
2022-09-13T15:51:07.128Z,100175.81
2022-09-13T15:53:35.813Z,100173.38
2022-09-13T15:56:05.268Z,100182.94
2022-09-13T15:58:35.854Z,100178.66
2022-09-13T16:01:05.551Z,100177.50
2022-09-13T16:03:33.613Z,100187.34
2022-09-13T16:06:21.502Z,100183.53
2022-09-13T16:08:59.228Z,100181.66
2022-09-13T16:11:27.153Z,100170.56
2022-09-13T16:13:56.781Z,100174.91
2022-09-13T16:16:26.139Z,100176.09
2022-09-13T16:18:53.963Z,100172.69
2022-09-13T16:21:23.919Z,100173.53
2022-09-13T16:23:54.033Z,100166.56
2022-09-13T16:26:23.824Z,100169.81
2022-09-13T16:28:51.663Z,100175.69
2022-09-13T16:31:20.281Z,100173.00
2022-09-13T16:33:57.077Z,100177.09
2022-09-13T16:36:27.642Z,100176.03
2022-09-13T16:39:01.733Z,100171.44
2022-09-13T16:41:31.739Z,100171.09
2022-09-13T16:43:59.662Z,100173.13
2022-09-13T16:46:30.790Z,100167.53
2022-09-13T16:49:00.541Z,100167.31
2022-09-13T16:51:28.395Z,100166.06
2022-09-13T16:54:02.767Z,100138.53
2022-09-13T16:56:32.022Z,100173.25
2022-09-13T16:58:59.869Z,100170.31
2022-09-13T17:01:29.896Z,100173.31
2022-09-13T17:03:58.694Z,100155.88
2022-09-13T17:06:30.339Z,100163.25
2022-09-13T17:09:02.100Z,100166.13
2022-09-13T17:11:32.762Z,100177.81
2022-09-13T17:14:05.443Z,100168.81
2022-09-13T17:16:37.325Z,100172.81
2022-09-13T17:19:10.916Z,100171.50
2022-09-13T17:21:40.124Z,100173.59
2022-09-13T17:24:13.286Z,100173.19
2022-09-13T17:26:41.726Z,100173.03
2022-09-13T17:29:10.472Z,100181.88
2022-09-13T17:31:38.441Z,100183.03
2022-09-13T17:34:06.296Z,100183.75
2022-09-13T17:36:34.295Z,100184.31
2022-09-13T17:39:04.085Z,100185.75
2022-09-13T17:41:32.191Z,100177.84
2022-09-13T17:44:00.299Z,100177.44
2022-09-13T17:46:30.104Z,100183.97
2022-09-13T17:48:59.615Z,100183.47
2022-09-13T17:51:32.046Z,100187.53
2022-09-13T17:54:02.255Z,100178.75
2022-09-13T17:56:36.106Z,100167.03
2022-09-13T17:59:10.161Z,100184.41
2022-09-13T18:01:40.849Z,100193.63
2022-09-13T18:04:09.261Z,100190.13
2022-09-13T18:06:38.147Z,100203.06
2022-09-13T18:09:06.393Z,100195.41
2022-09-13T18:11:35.564Z,100196.03
2022-09-13T18:14:03.380Z,100185.63
2022-09-13T18:16:34.768Z,100198.94
2022-09-13T18:19:02.751Z,100190.09
2022-09-13T18:21:30.700Z,100197.38
2022-09-13T18:24:01.546Z,100195.44
2022-09-13T18:26:32.473Z,100193.69
2022-09-13T18:29:03.241Z,100189.00
2022-09-13T18:31:32.949Z,100206.84
2022-09-13T18:34:03.179Z,100210.97
2022-09-13T18:36:33.266Z,100213.53
2022-09-13T18:39:03.017Z,100203.63
2022-09-13T18:41:33.356Z,100214.88
2022-09-13T18:44:04.876Z,100217.94
2022-09-13T18:46:34.308Z,100211.63
2022-09-13T18:49:03.169Z,100215.66
2022-09-13T18:51:33.085Z,100217.94
2022-09-13T18:54:01.863Z,100216.72
2022-09-13T18:56:30.474Z,100208.34
2022-09-13T18:59:00.824Z,100223.84
2022-09-13T19:01:32.713Z,100226.97
2022-09-13T19:04:02.677Z,100225.41
2022-09-13T19:06:33.084Z,100235.47
2022-09-13T19:09:03.572Z,100229.94
2022-09-13T19:11:48.252Z,100226.94
2022-09-13T19:14:19.565Z,100243.63
2022-09-13T19:16:48.717Z,100243.75
2022-09-13T19:19:16.579Z,100246.06
2022-09-13T19:21:44.783Z,100247.47
2022-09-13T19:24:17.574Z,100242.13
2022-09-13T19:26:47.669Z,100238.41
2022-09-13T19:29:17.762Z,100241.44
2022-09-13T19:31:49.405Z,100239.78
2022-09-13T19:34:19.079Z,100245.78
2022-09-13T19:36:48.959Z,100248.91
2022-09-13T19:39:16.797Z,100247.94
2022-09-13T19:41:44.629Z,100246.88
2022-09-13T19:44:18.284Z,100248.22
2022-09-13T19:46:46.411Z,100252.09
2022-09-13T19:49:17.763Z,100252.66
2022-09-13T19:51:51.417Z,100258.16
2022-09-13T19:54:20.581Z,100249.47
2022-09-13T19:56:48.519Z,100250.84
2022-09-13T19:59:19.706Z,100242.81
2022-09-13T20:01:48.768Z,100235.09
2022-09-13T20:04:20.372Z,100240.97
2022-09-13T20:06:50.910Z,100244.09
2022-09-13T20:09:20.470Z,100215.78
2022-09-13T20:11:52.411Z,100239.44
2022-09-13T20:14:21.925Z,100246.94
2022-09-13T20:16:50.014Z,100238.25
2022-09-13T20:19:42.456Z,100209.88
2022-09-13T20:22:12.128Z,100247.03
2022-09-13T20:24:39.970Z,100246.94
2022-09-13T20:27:10.870Z,100250.84
2022-09-13T20:29:39.869Z,100250.84
2022-09-13T20:32:08.019Z,100247.34
2022-09-13T20:34:39.445Z,100243.69
2022-09-13T20:37:07.239Z,100253.84
2022-09-13T20:39:35.127Z,100248.38
2022-09-13T20:42:02.931Z,100254.22
2022-09-13T20:44:40.343Z,100251.66
2022-09-13T20:47:08.447Z,100240.16
2022-09-13T20:49:39.911Z,100246.41
2022-09-13T20:52:07.661Z,100242.88
2022-09-13T20:54:36.095Z,100240.06
2022-09-13T20:57:03.860Z,100241.63
2022-09-13T20:59:32.420Z,100253.34
2022-09-13T21:02:03.481Z,100245.50
2022-09-13T21:04:34.212Z,100239.53
2022-09-13T21:07:20.907Z,100236.81
2022-09-13T21:09:48.725Z,100242.56
2022-09-13T21:12:17.155Z,100241.72
2022-09-13T21:14:46.294Z,100246.66
2022-09-13T21:17:16.856Z,100248.25
2022-09-13T21:19:44.601Z,100236.63
2022-09-13T21:22:13.803Z,100246.38
2022-09-13T21:24:41.667Z,100242.44
2022-09-13T21:27:09.597Z,100258.09
2022-09-13T21:29:37.582Z,100253.00
2022-09-13T21:32:10.910Z,100256.44
2022-09-13T21:34:38.872Z,100253.00
2022-09-13T21:37:06.635Z,100246.84
2022-09-13T21:39:44.385Z,100249.31
2022-09-13T21:42:12.280Z,100251.72
2022-09-13T21:44:43.483Z,100253.41
2022-09-13T21:47:11.557Z,100240.47
2022-09-13T21:49:42.806Z,100246.34
2022-09-13T21:52:10.647Z,100246.13
2022-09-13T21:54:38.586Z,100245.16
2022-09-13T21:57:07.934Z,100243.41
2022-09-13T21:59:44.820Z,100244.16
2022-09-13T22:02:13.026Z,100243.19
2022-09-13T22:04:40.865Z,100239.78
2022-09-13T22:07:08.721Z,100241.25
2022-09-13T22:09:39.550Z,100239.28
2022-09-13T22:12:09.202Z,100224.19
2022-09-13T22:14:40.092Z,100245.91
2022-09-13T22:17:10.373Z,100243.28
2022-09-13T22:19:41.200Z,100245.69
2022-09-13T22:22:09.049Z,100243.72
2022-09-13T22:24:36.813Z,100245.16
2022-09-13T22:27:04.962Z,100241.53
2022-09-13T22:29:34.411Z,100238.72
2022-09-13T22:32:02.548Z,100237.59
2022-09-13T22:34:30.978Z,100247.75
2022-09-13T22:37:00.042Z,100240.03
2022-09-13T22:39:28.076Z,100233.88
2022-09-13T22:41:56.044Z,100246.47
2022-09-13T22:44:23.968Z,100232.69
2022-09-13T22:46:53.255Z,100240.50
2022-09-13T22:49:21.118Z,100244.50
2022-09-13T22:51:49.352Z,100242.53
2022-09-13T22:54:19.113Z,100241.59
2022-09-13T22:56:47.496Z,100229.72
2022-09-13T22:59:18.547Z,100229.47
2022-09-13T23:01:46.493Z,100224.22
2022-09-13T23:04:15.917Z,100231.72
2022-09-13T23:06:44.816Z,100228.53
2022-09-13T23:09:15.190Z,100226.84
2022-09-13T23:11:43.122Z,100222.47
2022-09-13T23:14:13.120Z,100214.53
2022-09-13T23:16:43.256Z,100216.28
2022-09-13T23:19:12.931Z,100206.28
2022-09-13T23:21:42.976Z,100203.31
2022-09-13T23:24:18.073Z,100210.56
2022-09-13T23:26:46.856Z,100209.00
2022-09-13T23:29:16.932Z,100207.03
2022-09-13T23:31:46.847Z,100204.03
2022-09-13T23:34:18.360Z,100160.34
2022-09-13T23:36:47.848Z,100188.91
2022-09-13T23:39:17.535Z,100187.97
2022-09-13T23:41:47.050Z,100186.97
2022-09-13T23:44:15.122Z,100182.56
2022-09-13T23:46:43.102Z,100176.31
2022-09-13T23:49:11.023Z,100157.63
2022-09-13T23:51:38.983Z,100185.47
2022-09-13T23:54:08.918Z,100182.81
2022-09-13T23:56:37.353Z,100183.69
2022-09-13T23:59:06.181Z,100183.59
